Time;durP1;ratioP1;P1;durP2;ratioP2;P2;SDS_P1;SDS_P2;PMS_P1;PMS_P2;Temp;Humidity;BMP_temperature;BMP_pressure;BME280_temperature;BME280_humidity;BME280_pressure;Samples;Min_cycle;Max_cycle;Signal;HPM_P1;HPM_P2
2024/04/11 00:01:16;;;;;;;2.63;1.20;;;15.70;67.90;;;;;;5319481;26;20075;-52
2024/04/11 00:04:01;;;;;;;3.13;1.70;;;15.70;68.00;;;;;;5316275;26;20012;-51
2024/04/11 00:06:45;;;;;;;1.58;1.10;;;15.60;67.90;;;;;;5307228;26;20458;-47
2024/04/11 00:09:30;;;;;;;1.30;1.20;;;15.60;67.90;;;;;;5315800;26;20126;-49
2024/04/11 00:12:15;;;;;;;1.90;1.13;;;15.60;67.90;;;;;;5316487;26;20008;-50
2024/04/11 00:15:00;;;;;;;1.30;0.95;;;15.60;68.00;;;;;;5316354;26;20016;-50
2024/04/11 00:17:46;;;;;;;2.10;1.60;;;15.60;68.00;;;;;;5320018;26;20015;-51
2024/04/11 00:20:31;;;;;;;1.25;1.15;;;15.60;68.10;;;;;;5325018;26;20485;-54
2024/04/11 00:23:16;;;;;;;2.13;1.10;;;15.60;68.10;;;;;;5317233;26;20588;-53
2024/04/11 00:26:04;;;;;;;1.40;1.30;;;15.60;68.20;;;;;;5305498;26;20094;-52
2024/04/11 00:28:49;;;;;;;1.75;1.30;;;15.60;68.20;;;;;;5283670;27;20016;-51
2024/04/11 00:31:33;;;;;;;1.00;1.00;;;15.60;68.30;;;;;;5280192;26;20025;-56
2024/04/11 00:34:23;;;;;;;1.63;1.30;;;15.60;68.30;;;;;;5279874;27;20109;-56
2024/04/11 00:37:11;;;;;;;1.30;1.17;;;15.60;68.40;;;;;;5277418;26;20419;-53
2024/04/11 00:39:55;;;;;;;1.85;1.40;;;15.60;68.40;;;;;;5273484;26;20012;-47
2024/04/11 00:42:40;;;;;;;1.40;1.30;;;15.60;68.40;;;;;;5273486;26;20024;-57
2024/04/11 00:45:28;;;;;;;2.88;1.40;;;15.60;68.50;;;;;;5276876;26;20088;-51
2024/04/11 00:48:14;;;;;;;2.22;1.10;;;15.60;68.50;;;;;;5268307;27;20032;-52
2024/04/11 00:51:00;;;;;;;1.23;1.10;;;15.50;68.40;;;;;;5257320;27;20084;-56
2024/04/11 00:53:46;;;;;;;1.65;1.45;;;15.50;68.40;;;;;;5266622;26;20341;-53
2024/04/11 00:56:31;;;;;;;1.55;1.20;;;15.50;68.40;;;;;;5269068;27;20028;-51
2024/04/11 00:59:16;;;;;;;1.77;1.40;;;15.50;68.50;;;;;;5278754;27;20056;-51
2024/04/11 01:02:04;;;;;;;3.03;1.13;;;15.50;68.50;;;;;;5272938;26;20500;-51
2024/04/11 01:04:50;;;;;;;1.23;1.02;;;15.50;68.60;;;;;;5295693;26;20023;-53
2024/04/11 01:07:34;;;;;;;1.00;0.90;;;15.50;68.60;;;;;;5313966;26;20786;-49
2024/04/11 01:10:22;;;;;;;1.65;0.98;;;15.50;68.70;;;;;;5315477;26;20382;-50
2024/04/11 01:13:07;;;;;;;0.70;0.70;;;15.50;68.70;;;;;;5314371;26;20638;-52
2024/04/11 01:15:53;;;;;;;1.10;0.80;;;15.50;68.70;;;;;;5302181;26;20020;-50
2024/04/11 01:18:38;;;;;;;1.58;1.08;;;15.50;68.70;;;;;;5305377;26;20353;-51
2024/04/11 01:21:22;;;;;;;1.05;1.00;;;15.50;68.80;;;;;;5317677;26;20036;-50
2024/04/11 01:24:07;;;;;;;1.10;1.00;;;15.50;68.80;;;;;;5322747;26;20012;-52
2024/04/11 01:26:52;;;;;;;0.80;0.80;;;15.50;68.90;;;;;;5300357;26;20057;-49
2024/04/11 01:29:38;;;;;;;0.98;0.65;;;15.50;68.90;;;;;;5311284;26;20067;-49
2024/04/11 01:32:25;;;;;;;0.93;0.82;;;15.50;68.90;;;;;;5305867;26;20019;-53
2024/04/11 01:35:09;;;;;;;0.90;0.90;;;15.50;68.90;;;;;;5320366;26;20011;-49
2024/04/11 01:37:55;;;;;;;1.38;0.73;;;15.50;69.00;;;;;;5310186;26;20020;-52
2024/04/11 01:40:47;;;;;;;0.90;0.90;;;15.50;69.00;;;;;;5318253;26;20517;-51
2024/04/11 01:43:31;;;;;;;0.50;0.50;;;15.50;69.00;;;;;;5312127;26;20075;-48
2024/04/11 01:46:18;;;;;;;0.80;0.70;;;15.50;69.10;;;;;;5316371;26;20393;-52
2024/04/11 01:49:04;;;;;;;0.57;0.57;;;15.40;68.90;;;;;;5297314;26;20012;-48
2024/04/11 01:51:49;;;;;;;1.45;0.73;;;15.40;69.00;;;;;;5310899;26;20778;-55
2024/04/11 01:54:34;;;;;;;0.55;0.55;;;15.40;69.00;;;;;;5340347;26;20598;-52
2024/04/11 01:57:18;;;;;;;0.50;0.50;;;15.40;69.10;;;;;;5325301;26;20059;-49
2024/04/11 02:00:13;;;;;;;0.40;0.40;;;15.40;69.10;;;;;;5316771;26;20083;-47
2024/04/11 02:02:58;;;;;;;0.50;0.50;;;15.40;69.20;;;;;;5298054;26;20102;-54
2024/04/11 02:05:43;;;;;;;0.65;0.65;;;15.40;69.20;;;;;;5317334;26;20602;-52
2024/04/11 02:08:28;;;;;;;0.80;0.68;;;15.30;69.00;;;;;;5309572;26;20011;-49
2024/04/11 02:11:12;;;;;;;0.90;0.52;;;15.40;69.20;;;;;;5324599;26;20720;-55
2024/04/11 02:13:58;;;;;;;0.47;0.43;;;15.40;69.30;;;;;;5315424;26;20032;-51
2024/04/11 02:16:44;;;;;;;0.45;0.45;;;15.40;69.30;;;;;;5296316;26;20267;-52
2024/04/11 02:19:28;;;;;;;0.32;0.32;;;15.40;69.40;;;;;;5292627;26;20024;-54
2024/04/11 02:22:16;;;;;;;1.65;0.30;;;15.40;69.40;;;;;;5303775;26;20692;-52
2024/04/11 02:25:00;;;;;;;1.05;0.30;;;15.40;69.40;;;;;;5317304;26;20107;-49
2024/04/11 02:27:45;;;;;;;0.75;0.40;;;15.40;69.40;;;;;;5316746;26;20028;-53
2024/04/11 02:30:30;;;;;;;1.23;0.82;;;15.40;69.50;;;;;;5316180;26;20451;-52
2024/04/11 02:33:14;;;;;;;0.25;0.25;;;15.40;69.50;;;;;;5316391;26;20066;-52
2024/04/11 02:35:59;;;;;;;0.30;0.30;;;15.30;69.30;;;;;;5307183;26;20039;-52
2024/04/11 02:38:44;;;;;;;0.85;0.30;;;15.40;69.50;;;;;;5320472;26;20782;-56
2024/04/11 02:41:29;;;;;;;0.90;0.30;;;15.30;69.40;;;;;;5310929;26;20070;-54
2024/04/11 02:44:19;;;;;;;0.20;0.20;;;15.30;69.40;;;;;;5339522;26;20016;-52
2024/04/11 02:47:05;;;;;;;0.95;0.30;;;15.30;69.40;;;;;;5317025;26;20008;-53
2024/04/11 02:49:50;;;;;;;0.30;0.30;;;15.30;69.40;;;;;;5320735;26;20018;-51
2024/04/11 02:52:40;;;;;;;0.30;0.30;;;15.30;69.50;;;;;;5318891;26;20007;-52
2024/04/11 02:55:27;;;;;;;0.52;0.50;;;15.30;69.50;;;;;;5318041;26;20082;-51
2024/04/11 02:58:11;;;;;;;0.28;0.28;;;15.30;69.50;;;;;;5312539;26;20421;-52
2024/04/11 03:01:04;;;;;;;0.60;0.30;;;15.30;69.60;;;;;;5307883;26;20085;-50
2024/04/11 03:03:49;;;;;;;0.27;0.27;;;15.20;69.50;;;;;;5304039;26;20019;-52
2024/04/11 03:06:35;;;;;;;0.75;0.30;;;15.30;69.60;;;;;;5315234;26;20539;-50
2024/04/11 03:09:20;;;;;;;0.80;0.30;;;15.30;69.60;;;;;;5313898;26;20131;-48
2024/04/11 03:12:05;;;;;;;2.50;0.50;;;15.20;69.50;;;;;;5335804;26;20015;-52
2024/04/11 03:14:49;;;;;;;0.57;0.20;;;15.30;69.70;;;;;;5318049;26;20083;-53
2024/04/11 03:17:35;;;;;;;2.60;0.40;;;15.30;69.70;;;;;;5313625;26;20464;-51
2024/04/11 03:20:19;;;;;;;1.45;0.20;;;15.20;69.60;;;;;;5315432;26;20078;-52
2024/04/11 03:23:05;;;;;;;1.00;0.43;;;15.20;69.60;;;;;;5306065;26;20083;-51
2024/04/11 03:25:50;;;;;;;0.85;0.28;;;15.20;69.60;;;;;;5305928;26;20829;-52
2024/04/11 03:28:35;;;;;;;2.42;0.30;;;15.20;69.60;;;;;;5339166;26;20525;-48
2024/04/11 03:31:21;;;;;;;1.52;0.30;;;15.20;69.60;;;;;;5312052;26;20016;-52
2024/04/11 03:34:05;;;;;;;1.48;0.50;;;15.20;69.70;;;;;;5318026;26;20063;-53
2024/04/11 03:36:50;;;;;;;0.82;0.30;;;15.20;69.70;;;;;;5291969;26;20331;-50
2024/04/11 03:39:35;;;;;;;1.73;0.57;;;15.20;69.70;;;;;;5313335;26;20071;-51
2024/04/11 03:42:20;;;;;;;1.52;0.40;;;15.20;69.80;;;;;;5317848;26;20074;-51
2024/04/11 03:45:11;;;;;;;0.50;0.32;;;15.20;69.80;;;;;;5345734;26;20023;-52
2024/04/11 03:47:56;;;;;;;1.42;0.73;;;15.20;69.80;;;;;;5301459;26;20075;-51
2024/04/11 03:50:42;;;;;;;0.40;0.30;;;15.20;69.80;;;;;;5305260;26;20015;-51
2024/04/11 03:53:26;;;;;;;0.88;0.40;;;15.20;69.80;;;;;;5317155;26;20007;-48
2024/04/11 03:56:15;;;;;;;0.70;0.60;;;15.20;69.90;;;;;;5319936;26;20610;-49
2024/04/11 03:59:01;;;;;;;3.15;1.02;;;15.10;69.70;;;;;;5316675;26;20083;-50
2024/04/11 04:01:47;;;;;;;0.50;0.43;;;15.10;69.70;;;;;;5307937;26;20049;-52
2024/04/11 04:04:32;;;;;;;0.70;0.50;;;15.10;69.80;;;;;;5315888;26;20023;-50
2024/04/11 04:07:16;;;;;;;0.85;0.40;;;15.10;69.80;;;;;;5308482;26;20025;-49
2024/04/11 04:10:02;;;;;;;2.28;0.50;;;15.10;69.80;;;;;;5316489;26;20102;-52
2024/04/11 04:12:48;;;;;;;0.75;0.40;;;15.10;70.40;;;;;;5308022;26;21568;-52
2024/04/11 04:15:33;;;;;;;1.17;0.55;;;15.10;69.90;;;;;;5315108;26;20352;-53
2024/04/11 04:18:19;;;;;;;0.85;0.40;;;15.10;69.90;;;;;;5307997;26;20024;-51
2024/04/11 04:21:07;;;;;;;1.45;0.52;;;15.10;69.90;;;;;;5315755;26;20074;-52
2024/04/11 04:23:55;;;;;;;0.95;0.45;;;15.10;70.00;;;;;;5326907;26;20512;-50
2024/04/11 04:26:40;;;;;;;0.95;0.43;;;15.00;69.80;;;;;;5317223;26;20011;-47
2024/04/11 04:29:25;;;;;;;1.67;0.30;;;15.00;69.80;;;;;;5313311;26;20464;-52
2024/04/11 04:32:14;;;;;;;1.42;0.60;;;15.00;69.80;;;;;;5309054;26;20438;-50
2024/04/11 04:35:00;;;;;;;1.40;0.50;;;15.00;69.90;;;;;;5327797;26;20099;-49
2024/04/11 04:37:45;;;;;;;0.80;0.40;;;15.10;70.10;;;;;;5315025;26;20098;-51
2024/04/11 04:40:30;;;;;;;1.48;0.40;;;15.00;69.90;;;;;;5315434;26;20045;-53
2024/04/11 04:43:14;;;;;;;0.55;0.40;;;15.00;70.00;;;;;;5316941;26;20459;-52
2024/04/11 04:46:00;;;;;;;0.45;0.30;;;15.00;70.00;;;;;;5305991;26;20031;-49
2024/04/11 04:48:45;;;;;;;1.17;0.65;;;15.00;70.00;;;;;;5314412;26;20497;-53
2024/04/11 04:51:33;;;;;;;1.17;0.50;;;15.00;70.00;;;;;;5319086;26;20448;-53
2024/04/11 04:54:20;;;;;;;1.75;0.50;;;15.00;70.10;;;;;;5315262;26;20020;-52
2024/04/11 04:57:06;;;;;;;0.70;0.40;;;15.00;70.10;;;;;;5321081;26;20026;-51
2024/04/11 04:59:52;;;;;;;0.82;0.43;;;15.00;70.10;;;;;;5305581;26;20015;-50
2024/04/11 05:02:40;;;;;;;0.98;0.50;;;15.00;70.10;;;;;;5313094;26;20165;-51
2024/04/11 05:05:27;;;;;;;0.50;0.50;;;15.00;70.20;;;;;;5305859;26;20351;-60
2024/04/11 05:08:13;;;;;;;1.50;0.60;;;15.00;70.20;;;;;;5315843;26;20127;-53
2024/04/11 05:10:58;;;;;;;1.10;0.55;;;15.00;70.20;;;;;;5316584;26;20095;-52
2024/04/11 05:13:45;;;;;;;1.10;0.70;;;15.00;70.20;;;;;;5303109;26;20008;-50
2024/04/11 05:16:31;;;;;;;1.05;0.50;;;15.00;70.20;;;;;;5314614;26;20029;-52
2024/04/11 05:19:17;;;;;;;1.25;0.40;;;14.90;70.10;;;;;;5316325;26;20055;-55
2024/04/11 05:22:04;;;;;;;0.52;0.40;;;14.90;70.10;;;;;;5308758;26;20011;-51
2024/04/11 05:24:48;;;;;;;1.00;0.63;;;14.90;70.10;;;;;;5315042;26;20012;-50
2024/04/11 05:27:37;;;;;;;0.73;0.40;;;15.00;70.30;;;;;;5319387;26;20024;-49
2024/04/11 05:30:22;;;;;;;1.02;0.70;;;15.00;70.30;;;;;;5317837;26;20015;-58
2024/04/11 05:33:09;;;;;;;0.57;0.30;;;15.00;70.30;;;;;;5314003;26;20418;-52
2024/04/11 05:35:54;;;;;;;0.75;0.50;;;15.00;70.30;;;;;;5300388;26;20087;-62
2024/04/11 05:38:41;;;;;;;1.55;0.40;;;15.00;70.40;;;;;;5310510;26;20020;-50
2024/04/11 05:41:26;;;;;;;0.88;0.50;;;15.00;70.40;;;;;;5303016;26;20089;-52
2024/04/11 05:44:11;;;;;;;1.65;0.47;;;15.00;70.50;;;;;;5314517;26;20020;-55
2024/04/11 05:46:55;;;;;;;2.83;0.52;;;15.00;70.60;;;;;;5323857;26;20839;-54
2024/04/11 05:49:40;;;;;;;1.08;0.50;;;15.00;70.80;;;;;;5315669;26;20012;-51
2024/04/11 05:52:24;;;;;;;5.78;2.67;;;15.00;70.90;;;;;;5315466;26;20033;-52
2024/04/11 05:55:12;;;;;;;6.10;4.88;;;15.10;71.20;;;;;;5307811;26;20357;-55
2024/04/11 05:57:58;;;;;;;3.08;2.22;;;15.10;71.40;;;;;;5310913;26;20015;-57
2024/04/11 06:00:49;;;;;;;3.20;2.90;;;15.10;71.40;;;;;;5316312;26;20045;-52
2024/04/11 06:03:34;;;;;;;9.68;6.53;;;15.10;71.50;;;;;;5304466;26;20194;-55
2024/04/11 06:06:21;;;;;;;8.77;5.60;;;15.20;71.80;;;;;;5315556;26;20446;-53
2024/04/11 06:09:08;;;;;;;7.25;5.07;;;15.20;71.80;;;;;;5314844;26;20011;-53
2024/04/11 06:11:53;;;;;;;5.53;3.80;;;15.20;71.80;;;;;;5302680;26;20023;-50
2024/04/11 06:14:38;;;;;;;4.70;3.90;;;15.20;72.40;;;;;;5319071;26;20571;-48
2024/04/11 06:17:22;;;;;;;4.38;3.05;;;15.30;72.10;;;;;;5319341;26;20191;-49
2024/04/11 06:20:15;;;;;;;3.88;3.33;;;15.30;72.20;;;;;;5306522;26;20542;-51
2024/04/11 06:23:08;;;;;;;4.30;3.30;;;15.30;72.20;;;;;;5306810;26;20634;-51
2024/04/11 06:25:54;;;;;;;4.18;2.85;;;15.30;72.10;;;;;;5307050;26;20078;-50
2024/04/11 06:28:38;;;;;;;3.95;3.13;;;15.40;72.30;;;;;;5319121;26;20608;-51
2024/04/11 06:31:24;;;;;;;3.03;2.30;;;15.40;72.20;;;;;;5317772;26;20303;-48
2024/04/11 06:34:08;;;;;;;4.65;2.80;;;15.40;72.20;;;;;;5309689;26;20458;-52
2024/04/11 06:36:56;;;;;;;3.47;2.10;;;15.40;72.20;;;;;;5317737;26;20462;-49
2024/04/11 06:39:40;;;;;;;5.15;2.90;;;15.50;72.50;;;;;;5319336;26;20555;-51
2024/04/11 06:42:26;;;;;;;2.88;1.95;;;15.50;72.40;;;;;;5319310;26;20503;-48
2024/04/11 06:45:14;;;;;;;3.22;2.15;;;15.50;72.50;;;;;;5314738;26;20020;-53
2024/04/11 06:47:59;;;;;;;4.13;2.58;;;15.50;72.50;;;;;;5318147;26;20019;-54
2024/04/11 06:50:44;;;;;;;2.80;1.52;;;15.50;72.50;;;;;;5317756;26;20433;-54
2024/04/11 06:53:30;;;;;;;3.22;1.90;;;15.50;72.50;;;;;;5316441;26;20736;-52
2024/04/11 06:56:17;;;;;;;2.92;2.05;;;15.60;72.70;;;;;;5315824;26;20412;-54
2024/04/11 06:59:10;;;;;;;3.33;1.92;;;15.50;72.60;;;;;;5318561;26;20020;-49
2024/04/11 07:01:58;;;;;;;2.10;1.70;;;15.50;72.60;;;;;;5310233;26;20178;-51
2024/04/11 07:04:43;;;;;;;4.13;1.98;;;15.60;72.70;;;;;;5307831;26;20015;-52
2024/04/11 07:07:29;;;;;;;2.28;1.88;;;15.60;72.80;;;;;;5315213;26;20090;-53
2024/04/11 07:10:24;;;;;;;3.75;2.25;;;15.60;72.80;;;;;;5318460;26;20020;-53
2024/04/11 07:13:09;;;;;;;2.03;1.45;;;15.60;72.80;;;;;;5307906;26;20069;-50
2024/04/11 07:15:58;;;;;;;1.50;1.33;;;15.60;72.80;;;;;;5312585;26;20011;-52
2024/04/11 07:18:54;;;;;;;2.40;1.30;;;15.60;72.80;;;;;;5302551;26;20028;-51
2024/04/11 07:21:39;;;;;;;3.10;1.80;;;15.70;73.00;;;;;;5327661;26;20064;-50
2024/04/11 07:24:24;;;;;;;2.10;1.25;;;15.70;72.90;;;;;;5316474;26;20012;-50
2024/04/11 07:27:11;;;;;;;2.50;1.20;;;15.70;72.90;;;;;;5317490;26;20015;-49
2024/04/11 07:29:57;;;;;;;4.15;2.03;;;15.70;72.90;;;;;;5304544;26;20045;-51
2024/04/11 07:32:42;;;;;;;2.35;1.42;;;15.80;73.10;;;;;;5306382;26;20007;-52
2024/04/11 07:35:30;;;;;;;2.67;1.20;;;15.90;73.20;;;;;;5316058;26;20019;-52
2024/04/11 07:38:15;;;;;;;2.85;1.20;;;15.90;73.10;;;;;;5341176;26;20082;-50
2024/04/11 07:41:16;;;;;;;1.35;1.13;;;15.90;73.10;;;;;;5327756;26;20014;-49
2024/04/11 07:44:05;;;;;;;1.90;1.05;;;16.00;73.20;;;;;;5316262;26;20024;-61
2024/04/11 07:46:51;;;;;;;2.45;1.42;;;16.00;73.10;;;;;;5319580;26;20579;-52
2024/04/11 07:49:37;;;;;;;1.25;0.93;;;16.10;73.20;;;;;;5331614;26;20879;-49
2024/04/11 07:52:22;;;;;;;2.53;0.85;;;16.10;73.10;;;;;;5315745;26;20556;-53
2024/04/11 07:55:07;;;;;;;1.60;1.05;;;16.20;73.20;;;;;;5308521;26;20557;-53
2024/04/11 07:57:52;;;;;;;2.50;1.48;;;16.20;73.10;;;;;;5310889;26;20028;-55
2024/04/11 08:00:47;;;;;;;2.00;1.00;;;16.30;73.30;;;;;;5318146;26;20020;-51
2024/04/11 08:03:32;;;;;;;2.67;0.90;;;16.40;73.30;;;;;;5302027;26;20008;-50
2024/04/11 08:06:17;;;;;;;0.90;0.75;;;16.40;73.20;;;;;;5299183;26;20013;-50
2024/04/11 08:09:06;;;;;;;2.60;0.88;;;16.50;73.30;;;;;;5316925;26;20020;-53
2024/04/11 08:11:51;;;;;;;0.98;0.60;;;16.50;73.20;;;;;;5305002;26;20052;-52
2024/04/11 08:14:35;;;;;;;1.60;0.70;;;16.60;73.30;;;;;;5316365;26;20008;-52
2024/04/11 08:17:20;;;;;;;1.25;0.80;;;16.60;73.20;;;;;;5293019;26;20124;-53
2024/04/11 08:20:12;;;;;;;1.35;0.88;;;16.70;73.30;;;;;;5289075;26;20598;-51
2024/04/11 08:22:58;;;;;;;0.77;0.50;;;16.80;73.30;;;;;;5306137;26;20020;-49
2024/04/11 08:25:43;;;;;;;1.05;0.65;;;16.90;73.30;;;;;;5311504;26;20019;-48
2024/04/11 08:28:27;;;;;;;0.75;0.57;;;16.90;73.20;;;;;;5292002;26;20133;-48
2024/04/11 08:31:12;;;;;;;0.60;0.50;;;17.00;73.20;;;;;;5300277;26;20028;-52
2024/04/11 08:34:00;;;;;;;0.65;0.50;;;17.10;73.30;;;;;;5304880;26;20356;-51
2024/04/11 08:36:44;;;;;;;0.70;0.50;;;17.10;73.20;;;;;;5310368;26;20024;-56
2024/04/11 08:39:29;;;;;;;0.65;0.60;;;17.10;73.10;;;;;;5296249;26;20126;-54
2024/04/11 08:42:14;;;;;;;0.90;0.40;;;17.20;73.20;;;;;;5284697;26;20461;-53
2024/04/11 08:45:00;;;;;;;1.27;0.43;;;17.20;73.10;;;;;;5307067;26;20020;-53
2024/04/11 08:47:46;;;;;;;0.75;0.45;;;17.30;73.20;;;;;;5281711;26;20365;-50
2024/04/11 08:50:31;;;;;;;0.55;0.50;;;17.30;73.10;;;;;;5306236;26;20024;-51
2024/04/11 08:53:18;;;;;;;0.65;0.55;;;17.30;73.10;;;;;;5310198;26;20020;-52
2024/04/11 08:56:03;;;;;;;1.02;0.40;;;17.40;73.20;;;;;;5308749;26;20804;-51
2024/04/11 08:58:49;;;;;;;0.60;0.40;;;17.40;73.00;;;;;;5296499;26;20019;-54
2024/04/11 09:01:33;;;;;;;0.43;0.30;;;17.50;73.10;;;;;;5312032;26;20379;-53
2024/04/11 09:04:18;;;;;;;0.88;0.73;;;17.50;72.90;;;;;;5315141;26;20016;-55
2024/04/11 09:07:04;;;;;;;0.60;0.50;;;17.60;73.00;;;;;;5306576;26;20475;-56
2024/04/11 09:09:52;;;;;;;1.08;0.40;;;17.70;72.90;;;;;;5310276;26;20074;-51
2024/04/11 09:12:37;;;;;;;0.52;0.50;;;17.90;73.10;;;;;;5308207;26;20020;-54
2024/04/11 09:15:22;;;;;;;0.68;0.30;;;18.00;73.00;;;;;;5312608;26;20019;-54
2024/04/11 09:18:07;;;;;;;0.38;0.38;;;18.10;73.00;;;;;;5295540;26;20012;-56
2024/04/11 09:21:05;;;;;;;0.55;0.35;;;18.20;72.90;;;;;;5302717;26;20048;-53
2024/04/11 09:23:51;;;;;;;0.47;0.45;;;18.30;72.90;;;;;;5303377;26;20112;-55
2024/04/11 09:26:37;;;;;;;0.45;0.22;;;18.40;72.70;;;;;;5293374;26;20117;-52
2024/04/11 09:29:21;;;;;;;0.50;0.50;;;18.50;72.70;;;;;;5304253;26;20004;-55
2024/04/11 09:32:08;;;;;;;0.40;0.32;;;18.60;72.60;;;;;;5307021;26;20078;-52
2024/04/11 09:34:56;;;;;;;0.50;0.50;;;18.70;72.50;;;;;;5314812;26;20016;-53
2024/04/11 09:37:41;;;;;;;0.52;0.45;;;18.80;72.40;;;;;;5298518;26;20686;-49
2024/04/11 09:40:33;;;;;;;0.43;0.30;;;19.00;72.50;;;;;;5310055;26;20067;-52
2024/04/11 09:43:22;;;;;;;1.10;0.98;;;19.10;72.40;;;;;;5310748;26;20019;-52
2024/04/11 09:46:17;;;;;;;0.40;0.20;;;19.20;72.30;;;;;;5295671;26;20016;-52
2024/04/11 09:49:02;;;;;;;0.25;0.25;;;19.40;72.30;;;;;;5312668;26;20087;-51
2024/04/11 09:51:51;;;;;;;0.40;0.30;;;19.50;72.20;;;;;;5289988;26;20024;-51
2024/04/11 09:54:38;;;;;;;0.88;0.35;;;19.70;72.30;;;;;;5309429;26;20031;-53
2024/04/11 09:57:26;;;;;;;0.30;0.30;;;19.80;72.00;;;;;;5305923;26;20097;-50
2024/04/11 10:03:40;;;;;;;0.63;0.30;;;20.00;71.90;;;;;;5314855;26;20858;-54
2024/04/11 10:06:29;;;;;;;0.65;0.47;;;20.00;71.70;;;;;;5309483;26;20012;-48
2024/04/11 10:09:19;;;;;;;0.30;0.25;;;20.10;71.70;;;;;;5298576;26;20011;-52
2024/04/11 10:12:05;;;;;;;0.60;0.30;;;20.20;71.60;;;;;;5304279;26;20020;-49
2024/04/11 10:14:51;;;;;;;0.30;0.30;;;20.20;71.40;;;;;;5325271;26;20078;-50
2024/04/11 10:17:36;;;;;;;0.40;0.40;;;20.30;71.50;;;;;;5334197;26;20032;-54
2024/04/11 10:20:20;;;;;;;1.23;0.40;;;20.30;71.40;;;;;;5299249;26;20019;-49
2024/04/11 10:23:09;;;;;;;0.22;0.22;;;20.40;71.40;;;;;;5318926;26;20016;-51
2024/04/11 10:25:56;;;;;;;1.15;0.50;;;20.40;71.20;;;;;;5298003;26;20437;-51
2024/04/11 10:28:41;;;;;;;0.38;0.38;;;20.50;71.10;;;;;;5304685;26;20057;-50
2024/04/11 10:31:28;;;;;;;0.65;0.40;;;20.60;71.00;;;;;;5304237;26;20072;-51
2024/04/11 10:34:19;;;;;;;2.70;0.60;;;20.60;70.80;;;;;;5295318;26;20017;-54
2024/04/11 10:37:04;;;;;;;1.10;0.90;;;20.60;70.70;;;;;;5296161;26;20736;-48
2024/04/11 10:40:00;;;;;;;1.83;0.57;;;20.70;70.80;;;;;;5287723;26;20019;-49
2024/04/11 10:45:51;;;;;;;0.30;0.30;;;21.00;70.80;;;;;;5302547;26;20016;-48
2024/04/11 10:48:40;;;;;;;0.40;0.40;;;21.00;70.50;;;;;;5301457;26;20545;-51
2024/04/11 10:51:27;;;;;;;0.38;0.38;;;21.10;70.40;;;;;;5292809;26;20024;-53
2024/04/11 10:54:12;;;;;;;0.30;0.30;;;21.20;70.40;;;;;;5294201;26;20064;-50
2024/04/11 10:56:58;;;;;;;0.30;0.28;;;21.30;70.30;;;;;;5307330;26;20027;-50
2024/04/11 10:59:51;;;;;;;0.30;0.30;;;21.40;70.20;;;;;;5338417;26;20079;-53
2024/04/11 11:02:42;;;;;;;1.10;0.40;;;21.50;69.90;;;;;;5314534;26;20057;-52
2024/04/11 11:05:27;;;;;;;0.30;0.20;;;21.70;69.90;;;;;;5285643;26;20310;-50
2024/04/11 11:08:13;;;;;;;0.73;0.40;;;21.90;69.90;;;;;;5311086;26;20049;-52
2024/04/11 11:10:57;;;;;;;0.98;0.30;;;22.10;70.30;;;;;;5315606;26;20543;-51
2024/04/11 11:13:43;;;;;;;1.02;0.47;;;22.20;69.50;;;;;;5305976;26;20144;-50
2024/04/11 11:16:31;;;;;;;0.50;0.40;;;22.40;69.60;;;;;;5338621;26;20426;-54
2024/04/11 11:19:17;;;;;;;0.50;0.40;;;22.50;69.30;;;;;;5310826;26;20016;-54
2024/04/11 11:22:02;;;;;;;1.23;0.30;;;22.60;69.20;;;;;;5328594;26;20027;-52
2024/04/11 11:24:47;;;;;;;1.48;0.30;;;22.80;69.20;;;;;;5280823;26;20025;-53
2024/04/11 11:27:32;;;;;;;0.88;0.50;;;22.90;69.10;;;;;;5289488;26;20068;-54
2024/04/11 11:30:16;;;;;;;0.40;0.40;;;22.90;68.90;;;;;;5274313;26;20021;-51
2024/04/11 11:33:04;;;;;;;0.30;0.30;;;23.00;69.00;;;;;;5267421;26;20020;-52
2024/04/11 11:35:50;;;;;;;0.30;0.30;;;23.00;68.80;;;;;;5256974;27;20535;-54
2024/04/11 11:38:34;;;;;;;0.60;0.40;;;23.10;68.80;;;;;;5266779;27;20077;-52
2024/04/11 11:41:20;;;;;;;1.48;0.50;;;23.20;68.70;;;;;;5277572;26;20012;-55
2024/04/11 11:44:17;;;;;;;0.35;0.30;;;23.30;68.70;;;;;;5268603;26;20347;-52
2024/04/11 11:47:07;;;;;;;0.30;0.30;;;23.40;68.50;;;;;;5272299;26;20203;-53
2024/04/11 11:49:52;;;;;;;0.28;0.28;;;23.50;68.50;;;;;;5237553;27;20066;-52
2024/04/11 11:52:42;;;;;;;0.22;0.20;;;23.50;68.30;;;;;;5254286;27;20374;-53
2024/04/11 11:55:27;;;;;;;0.60;0.20;;;23.50;68.20;;;;;;5278916;26;20462;-55
2024/04/11 11:58:18;;;;;;;0.90;0.20;;;23.50;68.20;;;;;;5263150;27;20574;-54
2024/04/11 12:01:28;;;;;;;0.20;0.20;;;23.50;68.10;;;;;;5272830;26;20045;-55
2024/04/11 12:04:11;;;;;;;0.50;0.40;;;23.60;68.10;;;;;;5276456;26;20024;-53
2024/04/11 12:06:55;;;;;;;0.68;0.30;;;23.70;68.20;;;;;;5269354;27;20590;-55
2024/04/11 12:09:43;;;;;;;1.98;0.40;;;23.80;68.10;;;;;;5279203;26;20021;-54
2024/04/11 12:12:34;;;;;;;0.55;0.40;;;23.90;68.00;;;;;;5272824;26;20024;-53
2024/04/11 12:15:19;;;;;;;0.95;0.28;;;24.10;68.00;;;;;;5276939;27;20262;-55
2024/04/11 12:18:11;;;;;;;0.52;0.32;;;24.30;68.00;;;;;;5267651;26;20029;-54
2024/04/11 12:20:57;;;;;;;0.20;0.20;;;24.40;67.80;;;;;;5269329;26;20077;-56
2024/04/11 12:23:47;;;;;;;0.43;0.22;;;24.50;67.70;;;;;;5258774;26;20025;-55
2024/04/11 12:26:35;;;;;;;0.55;0.30;;;24.60;67.70;;;;;;5246019;27;20085;-58
2024/04/11 12:29:20;;;;;;;0.30;0.30;;;24.70;67.70;;;;;;5269001;27;20025;-58
2024/04/11 12:32:07;;;;;;;0.95;0.30;;;24.80;67.70;;;;;;5269664;26;20012;-53
2024/04/11 12:34:55;;;;;;;0.77;0.30;;;24.90;67.60;;;;;;5273311;26;20077;-54
2024/04/11 12:37:45;;;;;;;0.38;0.30;;;25.00;67.50;;;;;;5273570;26;20016;-55
2024/04/11 12:40:39;;;;;;;0.75;0.30;;;25.10;67.30;;;;;;5287034;26;20145;-54
2024/04/11 12:43:28;;;;;;;0.77;0.50;;;25.20;67.10;;;;;;5297556;26;20135;-54
2024/04/11 12:46:16;;;;;;;0.82;0.45;;;25.30;66.90;;;;;;5314698;26;20015;-55
2024/04/11 12:49:15;;;;;;;0.60;0.47;;;25.40;66.70;;;;;;5315089;26;20012;-55
2024/04/11 12:52:00;;;;;;;0.47;0.30;;;25.50;66.50;;;;;;5313544;26;20076;-54
2024/04/11 12:54:47;;;;;;;0.57;0.55;;;25.60;66.40;;;;;;5317790;26;20023;-55
2024/04/11 12:57:37;;;;;;;0.52;0.45;;;25.70;66.20;;;;;;5299370;26;20430;-55
2024/04/11 13:03:52;;;;;;;0.30;0.30;;;25.80;65.80;;;;;;5300368;26;20007;-54
2024/04/11 13:06:37;;;;;;;0.40;0.40;;;25.90;65.70;;;;;;5313298;26;20016;-55
2024/04/11 13:09:31;;;;;;;0.70;0.70;;;25.90;65.60;;;;;;5313855;26;20079;-53
2024/04/11 13:12:19;;;;;;;0.90;0.40;;;26.00;65.50;;;;;;5306196;26;20023;-53
2024/04/11 13:15:11;;;;;;;0.60;0.60;;;26.00;65.30;;;;;;5335443;26;20016;-54
2024/04/11 13:17:57;;;;;;;0.50;0.50;;;26.00;65.10;;;;;;5304199;26;20017;-52
2024/04/11 13:20:44;;;;;;;0.40;0.40;;;25.90;65.10;;;;;;5303546;26;20015;-54
2024/04/11 13:23:32;;;;;;;0.55;0.50;;;25.80;65.20;;;;;;5309070;26;20284;-52
2024/04/11 13:26:17;;;;;;;0.38;0.30;;;25.60;65.20;;;;;;5313336;26;20070;-54
2024/04/11 13:29:01;;;;;;;0.93;0.65;;;25.50;65.30;;;;;;5314820;26;20013;-52
2024/04/11 13:31:46;;;;;;;0.73;0.50;;;25.30;65.40;;;;;;5305308;26;20016;-55
2024/04/11 13:34:39;;;;;;;1.00;0.60;;;25.10;65.40;;;;;;5310651;26;20012;-52
2024/04/11 13:37:25;;;;;;;0.70;0.70;;;25.00;65.50;;;;;;5308228;26;20075;-54
2024/04/11 13:43:17;;;;;;;3.35;1.02;;;24.70;65.30;;;;;;5307442;26;20075;-52
2024/04/11 13:46:07;;;;;;;0.85;0.40;;;24.70;65.50;;;;;;5309748;26;20052;-55
2024/04/11 13:48:52;;;;;;;1.13;0.70;;;24.60;65.40;;;;;;5318233;26;20508;-55
2024/04/11 13:51:44;;;;;;;1.05;0.47;;;24.50;65.30;;;;;;5312733;26;20074;-55
2024/04/11 13:54:31;;;;;;;0.70;0.60;;;24.40;65.20;;;;;;5313299;26;20466;-55
2024/04/11 13:57:21;;;;;;;0.63;0.63;;;24.30;65.10;;;;;;5306446;26;20048;-54
2024/04/11 14:00:09;;;;;;;0.60;0.60;;;24.20;65.10;;;;;;5304352;26;20035;-55
2024/04/11 14:02:59;;;;;;;0.85;0.47;;;24.20;65.10;;;;;;5315067;26;20024;-53
2024/04/11 14:05:59;;;;;;;1.25;0.50;;;24.20;65.10;;;;;;5310948;26;20452;-56
2024/04/11 14:08:44;;;;;;;0.63;0.60;;;24.10;65.00;;;;;;5312256;26;20094;-54
2024/04/11 14:11:29;;;;;;;1.35;0.50;;;24.10;65.00;;;;;;5307575;26;20532;-56
2024/04/11 14:14:20;;;;;;;0.40;0.40;;;24.10;64.90;;;;;;5313886;26;20012;-55
2024/04/11 14:17:08;;;;;;;1.23;0.60;;;24.00;64.70;;;;;;5303839;26;20020;-55
2024/04/11 14:20:07;;;;;;;0.73;0.50;;;23.90;65.20;;;;;;5311315;26;20016;-55
2024/04/11 14:23:14;;;;;;;1.67;0.88;;;23.90;64.80;;;;;;5306182;26;20008;-49
2024/04/11 14:26:06;;;;;;;0.85;0.70;;;23.80;64.70;;;;;;5302807;26;20083;-56
2024/04/11 14:28:54;;;;;;;0.60;0.50;;;23.80;64.80;;;;;;5294473;26;20242;-53
2024/04/11 14:31:39;;;;;;;0.68;0.60;;;23.80;64.80;;;;;;5305337;26;20024;-54
2024/04/11 14:35:22;;;;;;;1.00;0.70;;;23.80;64.60;;;;;;5300136;26;20091;-54
2024/04/11 14:40:14;;;;;;;1.30;0.63;;;23.90;64.60;;;;;;5316772;26;20080;-55
2024/04/11 14:43:00;;;;;;;2.08;0.70;;;23.90;64.60;;;;;;5315347;26;20448;-56
2024/04/11 14:45:45;;;;;;;1.20;0.57;;;23.90;64.50;;;;;;5309569;26;20391;-55